Time;durP1;ratioP1;P1;durP2;ratioP2;P2;SDS_P1;SDS_P2;PMS_P1;PMS_P2;Temp;Humidity;BMP_temperature;BMP_pressure;BME280_temperature;BME280_humidity;BME280_pressure;Samples;Min_cycle;Max_cycle;Signal;HPM_P1;HPM_P2
2021/07/02 00:00:33;;;;;;;;;;;;;;;30.15;35.15;97404.66;5010942;28;1286;-56
2021/07/02 00:02:59;;;;;;;;;;;;;;;29.96;35.42;97407.47;5000302;28;1585;-55
2021/07/02 00:05:24;;;;;;;;;;;;;;;29.95;35.35;97411.94;5001805;28;1578;-53
2021/07/02 00:07:49;;;;;;;;;;;;;;;30.05;35.16;97406.53;4999150;28;1541;-55
2021/07/02 00:10:14;;;;;;;;;;;;;;;29.97;35.37;97406.47;5008296;28;1554;-56
2021/07/02 00:12:39;;;;;;;;;;;;;;;29.98;35.15;97408.16;5009162;28;1192;-55
2021/07/02 00:15:05;;;;;;;;;;;;;;;30.14;34.70;97412.81;5009594;28;1910;-56
2021/07/02 00:17:30;;;;;;;;;;;;;;;30.24;34.91;97409.06;5001386;28;1599;-53
2021/07/02 00:22:24;;;;;;;;;;;;;;;30.15;34.76;97407.31;5054507;23;1760;-81
2021/07/02 00:24:49;;;;;;;;;;;;;;;29.83;35.47;97407.00;5002894;28;1471;-81
2021/07/02 00:27:15;;;;;;;;;;;;;;;29.98;35.24;97408.16;5035934;28;1552;-81
2021/07/02 00:29:40;;;;;;;;;;;;;;;29.94;35.52;97406.75;5036836;28;1323;-81
2021/07/02 00:32:05;;;;;;;;;;;;;;;29.89;35.24;97403.75;5038434;28;991;-80
2021/07/02 00:34:30;;;;;;;;;;;;;;;30.57;34.41;97406.63;5019007;28;1577;-81
2021/07/02 00:36:56;;;;;;;;;;;;;;;29.75;35.69;97399.78;5037213;28;1968;-81
2021/07/02 00:39:21;;;;;;;;;;;;;;;30.00;35.08;97404.34;5041121;28;1161;-81
2021/07/02 00:41:46;;;;;;;;;;;;;;;29.90;35.25;97405.41;5040570;28;1548;-81
2021/07/02 00:44:11;;;;;;;;;;;;;;;29.89;35.47;97404.56;5044001;28;1599;-81
2021/07/02 00:46:36;;;;;;;;;;;;;;;30.32;34.52;97402.13;5025295;28;1365;-81
2021/07/02 00:49:02;;;;;;;;;;;;;;;30.14;34.92;97402.16;5041403;28;1646;-82
2021/07/02 00:51:30;;;;;;;;;;;;;;;29.86;35.30;97409.34;5042487;28;1133;-81
2021/07/02 00:53:55;;;;;;;;;;;;;;;30.06;35.06;97410.88;5024188;28;1436;-81
2021/07/02 00:56:20;;;;;;;;;;;;;;;29.99;35.17;97409.81;5023599;28;1905;-81
2021/07/02 00:58:45;;;;;;;;;;;;;;;30.21;35.06;97403.22;5034831;28;1501;-82
2021/07/02 01:01:15;;;;;;;;;;;;;;;29.80;35.22;97399.34;5023771;28;1181;-82
2021/07/02 01:03:40;;;;;;;;;;;;;;;30.20;35.06;97399.72;5022189;28;1715;-82
2021/07/02 01:06:06;;;;;;;;;;;;;;;30.14;34.84;97395.00;5040378;28;1556;-81
2021/07/02 01:08:31;;;;;;;;;;;;;;;29.90;35.19;97394.78;5042862;28;1341;-81
2021/07/02 01:10:56;;;;;;;;;;;;;;;30.00;34.94;97393.69;5040502;28;1235;-81
2021/07/02 01:13:21;;;;;;;;;;;;;;;29.92;35.22;97387.47;5025045;28;1299;-81
2021/07/02 01:15:51;;;;;;;;;;;;;;;30.08;35.11;97392.97;5042372;28;1878;-81
2021/07/02 01:18:16;;;;;;;;;;;;;;;29.95;35.14;97382.69;5024132;28;1604;-82
2021/07/02 01:20:41;;;;;;;;;;;;;;;30.19;34.99;97387.41;5040611;28;1390;-81
2021/07/02 01:23:06;;;;;;;;;;;;;;;30.17;34.69;97386.72;5044070;28;1149;-81
2021/07/02 01:25:32;;;;;;;;;;;;;;;30.30;34.75;97389.81;5043072;28;1351;-81
2021/07/02 01:27:58;;;;;;;;;;;;;;;30.00;34.95;97392.88;5039789;28;1763;-81
2021/07/02 01:30:23;;;;;;;;;;;;;;;29.89;35.26;97385.13;5024744;28;1217;-81
2021/07/02 01:32:48;;;;;;;;;;;;;;;30.21;34.74;97393.41;5039085;28;1544;-81
2021/07/02 01:35:14;;;;;;;;;;;;;;;29.95;34.95;97387.19;5024041;28;1906;-81
2021/07/02 01:37:39;;;;;;;;;;;;;;;29.81;35.33;97391.22;5041329;28;1303;-81
2021/07/02 01:40:04;;;;;;;;;;;;;;;30.04;34.84;97388.94;5040914;28;1327;-81
2021/07/02 01:42:30;;;;;;;;;;;;;;;29.78;35.52;97391.50;5041156;28;1580;-81
2021/07/02 01:44:55;;;;;;;;;;;;;;;30.00;35.14;97384.88;5038413;28;1398;-81
2021/07/02 01:47:20;;;;;;;;;;;;;;;30.46;34.24;97375.78;5041461;28;1341;-81
2021/07/02 01:49:45;;;;;;;;;;;;;;;29.67;35.88;97373.97;5039655;28;1570;-81
2021/07/02 01:52:10;;;;;;;;;;;;;;;29.71;35.79;97375.34;5041160;28;1640;-81
2021/07/02 01:54:36;;;;;;;;;;;;;;;29.86;35.18;97367.69;5040841;28;1090;-80
2021/07/02 01:57:03;;;;;;;;;;;;;;;29.90;35.13;97365.53;5035958;28;1902;-81
2021/07/02 01:59:28;;;;;;;;;;;;;;;30.09;35.01;97373.34;5022071;28;1212;-81
2021/07/02 02:01:53;;;;;;;;;;;;;;;29.92;34.93;97374.19;5040828;28;1201;-82
2021/07/02 02:04:19;;;;;;;;;;;;;;;30.13;34.79;97371.25;5039939;28;1571;-81
2021/07/02 02:06:44;;;;;;;;;;;;;;;29.65;35.56;97362.66;5035822;28;1590;-81
2021/07/02 02:09:09;;;;;;;;;;;;;;;29.80;35.37;97368.28;5039235;28;1168;-81
2021/07/02 02:11:35;;;;;;;;;;;;;;;30.06;34.93;97363.00;5022628;28;1047;-81
2021/07/02 02:14:00;;;;;;;;;;;;;;;29.90;35.21;97368.19;5040229;28;1491;-82
2021/07/02 02:16:25;;;;;;;;;;;;;;;30.05;35.00;97366.66;5021325;28;1992;-81
2021/07/02 02:18:50;;;;;;;;;;;;;;;29.82;35.41;97365.47;5039950;28;1540;-81
2021/07/02 02:21:16;;;;;;;;;;;;;;;30.51;34.04;97372.69;5022808;28;1316;-81
2021/07/02 02:23:41;;;;;;;;;;;;;;;30.16;34.81;97366.44;5041540;28;1157;-81
2021/07/02 02:26:06;;;;;;;;;;;;;;;30.08;34.82;97370.81;5021626;28;1552;-81
2021/07/02 02:28:31;;;;;;;;;;;;;;;29.78;35.41;97364.06;5022702;28;1133;-81
2021/07/02 02:30:57;;;;;;;;;;;;;;;29.80;35.13;97365.63;5016239;28;1416;-81
2021/07/02 02:33:22;;;;;;;;;;;;;;;29.78;35.24;97366.72;5039893;28;1587;-81
2021/07/02 02:35:47;;;;;;;;;;;;;;;29.80;35.50;97367.44;5039635;28;1898;-81
2021/07/02 02:38:12;;;;;;;;;;;;;;;29.95;34.91;97369.41;5040356;28;1263;-81
2021/07/02 02:40:38;;;;;;;;;;;;;;;30.27;34.52;97371.53;5037800;28;1592;-81
2021/07/02 02:43:03;;;;;;;;;;;;;;;30.25;34.34;97370.81;5037672;28;1401;-81
2021/07/02 02:45:28;;;;;;;;;;;;;;;30.01;34.64;97373.25;5023955;28;1279;-81
2021/07/02 02:47:53;;;;;;;;;;;;;;;29.87;35.12;97363.19;5040433;28;1508;-80
2021/07/02 02:50:18;;;;;;;;;;;;;;;29.64;35.71;97368.13;5041732;28;1145;-81
2021/07/02 02:52:44;;;;;;;;;;;;;;;29.75;35.52;97366.06;5025012;28;1126;-80
2021/07/02 02:55:09;;;;;;;;;;;;;;;29.68;35.57;97366.81;5025257;28;1894;-81
2021/07/02 02:57:34;;;;;;;;;;;;;;;30.03;34.86;97363.31;5043760;28;1564;-81
2021/07/02 03:00:00;;;;;;;;;;;;;;;29.84;35.28;97366.13;5023568;28;1338;-81
2021/07/02 03:02:25;;;;;;;;;;;;;;;29.96;35.16;97373.72;5041001;28;1137;-81
2021/07/02 03:04:50;;;;;;;;;;;;;;;29.96;35.12;97372.91;5040556;28;1656;-81
2021/07/02 03:07:15;;;;;;;;;;;;;;;29.64;35.54;97368.13;5040671;28;1517;-81
2021/07/02 03:09:40;;;;;;;;;;;;;;;30.20;34.41;97372.28;5045137;28;1302;-81
2021/07/02 03:12:06;;;;;;;;;;;;;;;29.98;34.88;97361.13;5042965;28;1160;-81
2021/07/02 03:14:31;;;;;;;;;;;;;;;29.70;35.33;97371.00;5041643;28;1508;-81
2021/07/02 03:16:56;;;;;;;;;;;;;;;29.85;35.17;97370.47;5026411;28;1886;-81
2021/07/02 03:19:21;;;;;;;;;;;;;;;29.52;35.99;97370.16;5043053;28;1580;-81
2021/07/02 03:21:47;;;;;;;;;;;;;;;29.75;35.50;97373.19;5023922;28;1193;-81
2021/07/02 03:24:12;;;;;;;;;;;;;;;29.94;35.03;97381.03;5009431;28;1379;-81
2021/07/02 03:26:37;;;;;;;;;;;;;;;30.20;34.59;97381.09;5041100;28;1635;-81
2021/07/02 03:29:03;;;;;;;;;;;;;;;29.65;35.48;97375.09;5039339;28;1252;-81
2021/07/02 03:31:28;;;;;;;;;;;;;;;29.67;35.47;97370.47;5021289;28;1185;-81
2021/07/02 03:33:53;;;;;;;;;;;;;;;29.74;35.15;97372.38;5023387;28;1561;-81
2021/07/02 03:36:18;;;;;;;;;;;;;;;29.77;35.29;97376.53;5010436;28;1991;-80
2021/07/02 03:38:44;;;;;;;;;;;;;;;29.66;35.47;97374.94;5045502;28;1169;-81
2021/07/02 03:41:09;;;;;;;;;;;;;;;29.89;35.05;97377.16;5023628;28;1455;-81
2021/07/02 03:43:34;;;;;;;;;;;;;;;29.72;35.61;97371.69;5042996;28;1500;-81
2021/07/02 03:45:59;;;;;;;;;;;;;;;30.02;34.81;97378.44;5036938;28;1653;-81
2021/07/02 03:48:25;;;;;;;;;;;;;;;30.06;34.53;97376.31;5038510;28;1540;-81
2021/07/02 03:50:50;;;;;;;;;;;;;;;29.80;35.31;97386.88;5016461;28;1705;-81
2021/07/02 03:53:15;;;;;;;;;;;;;;;29.53;35.55;97381.63;5036363;28;1291;-81
2021/07/02 03:55:40;;;;;;;;;;;;;;;30.08;34.73;97373.47;5031047;28;1959;-81
2021/07/02 03:58:05;;;;;;;;;;;;;;;30.12;34.81;97378.38;5020423;28;1169;-81
2021/07/02 04:00:31;;;;;;;;;;;;;;;29.62;35.45;97370.91;5037849;28;1169;-80
2021/07/02 04:02:56;;;;;;;;;;;;;;;29.78;35.10;97372.06;5036127;28;1567;-81
2021/07/02 04:05:21;;;;;;;;;;;;;;;29.64;35.48;97368.13;5019355;28;1695;-81
2021/07/02 04:07:47;;;;;;;;;;;;;;;29.87;35.23;97382.63;5036752;28;1743;-81
2021/07/02 04:10:12;;;;;;;;;;;;;;;29.79;35.19;97379.91;5039485;28;1635;-81
2021/07/02 04:12:37;;;;;;;;;;;;;;;29.90;35.15;97379.66;5038123;28;1177;-81
2021/07/02 04:15:03;;;;;;;;;;;;;;;29.98;34.94;97382.38;5035154;28;1532;-81
2021/07/02 04:17:28;;;;;;;;;;;;;;;29.87;34.95;97374.66;5004759;28;1906;-81
2021/07/02 04:19:54;;;;;;;;;;;;;;;29.69;35.42;97379.94;5037432;28;1679;-81
2021/07/02 04:22:19;;;;;;;;;;;;;;;29.86;35.27;97382.75;5038759;28;1267;-81
2021/07/02 04:24:44;;;;;;;;;;;;;;;29.85;35.33;97389.06;5038621;28;1295;-81
2021/07/02 04:27:09;;;;;;;;;;;;;;;29.86;35.36;97393.38;5038615;28;1305;-81
2021/07/02 04:29:34;;;;;;;;;;;;;;;29.59;35.54;97395.13;5018064;28;1577;-81
2021/07/02 04:32:00;;;;;;;;;;;;;;;29.92;35.04;97393.63;5038555;28;1192;-81
2021/07/02 04:34:25;;;;;;;;;;;;;;;29.96;35.03;97404.81;5017374;28;1534;-81
2021/07/02 04:36:50;;;;;;;;;;;;;;;29.90;35.23;97397.44;5038597;28;1906;-81
2021/07/02 04:39:18;;;;;;;;;;;;;;;29.69;35.46;97395.91;5034284;28;1560;-81
2021/07/02 04:41:43;;;;;;;;;;;;;;;30.10;34.80;97398.13;5019023;28;1587;-81
2021/07/02 04:44:09;;;;;;;;;;;;;;;29.93;35.15;97395.28;5035374;28;1737;-80
2021/07/02 04:46:34;;;;;;;;;;;;;;;29.81;35.31;97393.03;5037946;28;1285;-81
2021/07/02 04:48:59;;;;;;;;;;;;;;;30.00;34.87;97395.53;5017884;28;1553;-80
2021/07/02 04:51:24;;;;;;;;;;;;;;;30.30;34.52;97394.31;5020521;28;1611;-81
2021/07/02 04:53:49;;;;;;;;;;;;;;;29.72;35.25;97392.97;5035372;28;1291;-81
2021/07/02 04:56:15;;;;;;;;;;;;;;;29.98;35.02;97403.66;5033433;28;1969;-81
2021/07/02 04:58:41;;;;;;;;;;;;;;;29.68;35.37;97396.06;5019747;28;1174;-81
2021/07/02 05:01:06;;;;;;;;;;;;;;;29.89;35.22;97401.91;5017477;28;1458;-81
2021/07/02 05:03:31;;;;;;;;;;;;;;;30.07;34.63;97406.38;5022241;28;1608;-81
2021/07/02 05:05:56;;;;;;;;;;;;;;;30.05;34.93;97403.88;5035792;28;1531;-81
2021/07/02 05:08:24;;;;;;;;;;;;;;;29.63;35.86;97409.81;5014446;28;1674;-81
2021/07/02 05:10:49;;;;;;;;;;;;;;;30.09;34.65;97407.94;5039792;28;1208;-81
2021/07/02 05:13:14;;;;;;;;;;;;;;;30.13;35.01;97406.66;5039163;28;1093;-81
2021/07/02 05:15:39;;;;;;;;;;;;;;;29.80;35.60;97407.31;5035886;28;1964;-81
2021/07/02 05:18:05;;;;;;;;;;;;;;;29.95;35.20;97408.47;5037358;28;1718;-81
2021/07/02 05:20:30;;;;;;;;;;;;;;;30.23;34.79;97410.03;5019889;28;1267;-81
2021/07/02 05:22:55;;;;;;;;;;;;;;;29.84;35.34;97406.00;5038275;28;1172;-81
2021/07/02 05:25:20;;;;;;;;;;;;;;;30.33;34.44;97412.59;5024121;28;1309;-81
2021/07/02 05:27:46;;;;;;;;;;;;;;;30.15;34.71;97407.31;5040429;28;1599;-81
2021/07/02 05:30:11;;;;;;;;;;;;;;;30.35;34.51;97417.81;5042850;28;1205;-81
2021/07/02 05:32:36;;;;;;;;;;;;;;;29.99;34.79;97413.31;5040057;28;1642;-81
2021/07/02 05:35:02;;;;;;;;;;;;;;;30.00;35.02;97416.78;5040275;28;914;-81
2021/07/02 05:37:27;;;;;;;;;;;;;;;30.12;34.96;97426.25;5040426;28;1964;-81
2021/07/02 05:39:52;;;;;;;;;;;;;;;30.19;34.68;97421.16;5005621;28;1029;-81
2021/07/02 05:42:21;;;;;;;;;;;;;;;30.45;34.26;97426.53;5021556;28;1674;-80
2021/07/02 05:44:47;;;;;;;;;;;;;;;30.39;34.34;97429.78;5038224;28;919;-81
2021/07/02 05:47:12;;;;;;;;;;;;;;;29.99;35.18;97425.75;5040826;28;1318;-81
2021/07/02 05:49:38;;;;;;;;;;;;;;;30.11;34.64;97429.91;5038211;28;1559;-80
2021/07/02 05:52:03;;;;;;;;;;;;;;;29.92;35.33;97433.50;5041834;28;1153;-81
2021/07/02 05:54:29;;;;;;;;;;;;;;;30.41;34.27;97430.47;5042576;28;1180;-81
2021/07/02 05:56:54;;;;;;;;;;;;;;;30.54;34.29;97436.22;5037860;28;1941;-81
2021/07/02 05:59:19;;;;;;;;;;;;;;;30.51;34.12;97433.88;5038580;28;1603;-81
2021/07/02 06:01:44;;;;;;;;;;;;;;;30.11;34.60;97432.56;5040137;28;1145;-81
2021/07/02 06:04:10;;;;;;;;;;;;;;;30.17;34.58;97434.59;5021476;28;1605;-81
2021/07/02 06:06:35;;;;;;;;;;;;;;;30.08;34.80;97430.19;5038656;28;1619;-81
2021/07/02 06:09:00;;;;;;;;;;;;;;;29.72;35.69;97437.31;5037023;28;1161;-81
2021/07/02 06:11:25;;;;;;;;;;;;;;;30.23;34.78;97444.63;5042205;28;1223;-81
2021/07/02 06:13:50;;;;;;;;;;;;;;;30.60;34.02;97450.75;5039883;28;1121;-81
2021/07/02 06:16:16;;;;;;;;;;;;;;;30.63;33.83;97440.63;5019885;28;2018;-81
2021/07/02 06:18:41;;;;;;;;;;;;;;;29.85;35.31;97453.72;5037425;28;1559;-81
2021/07/02 06:21:06;;;;;;;;;;;;;;;30.37;34.28;97448.56;5005094;28;1211;-81
2021/07/02 06:23:35;;;;;;;;;;;;;;;30.49;34.06;97452.69;5037747;28;1196;-81
2021/07/02 06:26:03;;;;;;;;;;;;;;;29.71;35.64;97460.41;5021127;28;1374;-81
2021/07/02 06:28:29;;;;;;;;;;;;;;;30.91;33.61;97457.31;5022374;28;1693;-81
2021/07/02 06:30:54;;;;;;;;;;;;;;;30.18;34.69;97462.06;5039372;28;1110;-80
2021/07/02 06:33:19;;;;;;;;;;;;;;;30.42;34.53;97461.44;5037387;28;1626;-80
2021/07/02 06:35:45;;;;;;;;;;;;;;;30.59;34.10;97460.56;5036499;28;1922;-82
2021/07/02 06:38:10;;;;;;;;;;;;;;;30.46;34.51;97460.13;5038224;28;1019;-80
2021/07/02 06:40:35;;;;;;;;;;;;;;;30.56;34.15;97461.69;5041209;28;1090;-81
2021/07/02 06:43:00;;;;;;;;;;;;;;;30.27;34.77;97463.81;5036774;28;1532;-81
2021/07/02 06:45:26;;;;;;;;;;;;;;;31.03;33.40;97465.84;5038306;28;1295;-81
2021/07/02 06:47:52;;;;;;;;;;;;;;;30.15;35.12;97468.50;5018772;28;1544;-81
2021/07/02 06:50:17;;;;;;;;;;;;;;;30.84;33.64;97465.09;5022081;28;1117;-81
2021/07/02 06:52:42;;;;;;;;;;;;;;;30.24;34.62;97469.41;5037757;28;1193;-80
2021/07/02 06:55:07;;;;;;;;;;;;;;;31.10;33.19;97470.41;5038186;28;1149;-80
2021/07/02 06:57:32;;;;;;;;;;;;;;;30.97;33.40;97480.66;5039403;28;1938;-81
2021/07/02 07:00:02;;;;;;;;;;;;;;;31.09;33.23;97471.38;5039231;28;1240;-79
2021/07/02 07:02:27;;;;;;;;;;;;;;;30.74;33.96;97469.69;5036300;28;1022;-80
2021/07/02 07:04:53;;;;;;;;;;;;;;;29.90;35.55;97472.72;5035678;28;1762;-80
2021/07/02 07:07:18;;;;;;;;;;;;;;;30.74;33.67;97472.34;5036810;28;1625;-80
2021/07/02 07:09:43;;;;;;;;;;;;;;;30.97;33.40;97475.34;5036868;28;1224;-81
2021/07/02 07:12:08;;;;;;;;;;;;;;;31.47;32.70;97477.28;5037830;28;1094;-80
2021/07/02 07:14:33;;;;;;;;;;;;;;;30.62;33.86;97481.53;5037234;28;1216;-80
2021/07/02 07:16:59;;;;;;;;;;;;;;;30.52;33.97;97478.13;5017733;28;1976;-80
2021/07/02 07:19:27;;;;;;;;;;;;;;;30.12;34.97;97487.44;5037730;28;1532;-81
2021/07/02 07:21:52;;;;;;;;;;;;;;;31.44;32.46;97485.56;5035434;28;1022;-81
2021/07/02 07:24:17;;;;;;;;;;;;;;;30.43;34.28;97481.72;5038046;28;1142;-80
2021/07/02 07:26:42;;;;;;;;;;;;;;;31.08;33.23;97480.38;5037189;28;1543;-81
2021/07/02 07:29:08;;;;;;;;;;;;;;;31.24;33.11;97482.31;5034360;28;1552;-81
2021/07/02 07:31:33;;;;;;;;;;;;;;;31.36;32.77;97482.88;5037135;28;1603;-82
2021/07/02 07:33:59;;;;;;;;;;;;;;;30.96;33.19;97480.78;5036695;28;1528;-82
2021/07/02 07:36:24;;;;;;;;;;;;;;;30.43;34.15;97479.91;5036811;28;1911;-81
2021/07/02 07:38:50;;;;;;;;;;;;;;;30.51;34.03;97487.94;5035826;28;1222;-81
2021/07/02 07:41:15;;;;;;;;;;;;;;;30.35;34.41;97479.00;5037542;28;1117;-81
2021/07/02 07:43:40;;;;;;;;;;;;;;;30.65;34.11;97489.22;5035331;28;1686;-81
2021/07/02 07:46:05;;;;;;;;;;;;;;;30.13;34.70;97485.59;5039717;28;1414;-81
2021/07/02 07:48:31;;;;;;;;;;;;;;;31.10;33.20;97482.88;5017680;28;1589;-81
2021/07/02 07:51:13;;;;;;;;;;;;;;;30.05;34.97;97483.66;5038796;28;1124;-82
2021/07/02 07:53:38;;;;;;;;;;;;;;;30.99;33.57;97481.34;5021332;28;1746;-81
2021/07/02 07:56:03;;;;;;;;;;;;;;;30.51;34.17;97487.94;5042233;28;1906;-81
2021/07/02 07:58:28;;;;;;;;;;;;;;;30.86;33.66;97486.22;5040404;28;1153;-81
2021/07/02 08:00:53;;;;;;;;;;;;;;;30.74;33.57;97491.00;5039137;28;1559;-81
2021/07/02 08:03:19;;;;;;;;;;;;;;;30.49;34.41;97487.28;5039762;28;1643;-81
2021/07/02 08:05:44;;;;;;;;;;;;;;;30.44;34.29;97491.38;5040006;28;1658;-82
2021/07/02 08:08:09;;;;;;;;;;;;;;;30.02;34.98;97489.31;5039301;28;1314;-81
2021/07/02 08:10:35;;;;;;;;;;;;;;;30.27;34.44;97498.38;5041077;28;1173;-82
2021/07/02 08:13:00;;;;;;;;;;;;;;;30.37;34.31;97491.16;5039018;28;1318;-81
2021/07/02 08:15:25;;;;;;;;;;;;;;;31.22;32.94;97497.66;5040793;28;1898;-82
2021/07/02 08:17:50;;;;;;;;;;;;;;;30.95;33.41;97495.09;5039654;28;1762;-81
2021/07/02 08:20:15;;;;;;;;;;;;;;;30.61;33.98;97495.00;5038574;28;1129;-81
2021/07/02 08:22:41;;;;;;;;;;;;;;;29.96;35.10;97501.38;5040690;28;1113;-81
2021/07/02 08:25:06;;;;;;;;;;;;;;;30.17;34.54;97501.09;5040521;28;1173;-82
2021/07/02 08:29:22;;;;;;;;;;;;;;;30.28;34.57;97502.72;5036194;28;1524;-82
2021/07/02 08:30:17;;;;;;;;;;;;;;;30.26;34.58;97502.03;5038622;28;1261;-81
2021/07/02 08:32:42;;;;;;;;;;;;;;;30.18;34.73;97501.97;5038214;28;1608;-82
2021/07/02 08:35:08;;;;;;;;;;;;;;;30.89;33.71;97501.06;5040000;28;1204;-81
2021/07/02 08:37:34;;;;;;;;;;;;;;;30.40;34.15;97503.31;5040314;28;1905;-82
2021/07/02 08:39:59;;;;;;;;;;;;;;;29.99;34.88;97500.22;5037901;28;1212;-81
2021/07/02 08:42:25;;;;;;;;;;;;;;;30.15;34.77;97507.56;5038923;28;1544;-81
2021/07/02 08:44:50;;;;;;;;;;;;;;;30.39;34.27;97512.28;5040672;28;1168;-81
2021/07/02 08:47:15;;;;;;;;;;;;;;;30.19;34.53;97507.13;5037033;28;1429;-81
2021/07/02 08:49:42;;;;;;;;;;;;;;;29.94;35.32;97505.16;5021321;28;1566;-82
2021/07/02 08:52:07;;;;;;;;;;;;;;;29.86;35.39;97505.91;5020334;28;1418;-81
2021/07/02 08:54:33;;;;;;;;;;;;;;;30.11;34.67;97515.03;5041478;28;1200;-81
2021/07/02 08:56:58;;;;;;;;;;;;;;;29.92;35.15;97513.28;5037791;28;1906;-81
2021/07/02 08:59:27;;;;;;;;;;;;;;;30.18;34.76;97524.06;5043231;28;1404;-81
2021/07/02 09:01:52;;;;;;;;;;;;;;;30.02;35.18;97518.56;5023662;28;1106;-81
2021/07/02 09:04:19;;;;;;;;;;;;;;;30.08;34.80;97514.44;5025356;28;1521;-80
2021/07/02 09:06:44;;;;;;;;;;;;;;;30.57;34.32;97518.41;5025220;28;1574;-80
2021/07/02 09:09:09;;;;;;;;;;;;;;;30.27;34.51;97519.66;5043279;28;1370;-81
2021/07/02 09:11:35;;;;;;;;;;;;;;;30.41;34.35;97511.13;5039339;28;1698;-82
2021/07/02 09:14:01;;;;;;;;;;;;;;;30.47;34.28;97523.00;5041359;28;1926;-82
2021/07/02 09:16:28;;;;;;;;;;;;;;;30.24;34.60;97517.28;5026547;28;1894;-81
2021/07/02 09:18:53;;;;;;;;;;;;;;;30.57;33.98;97513.09;5024718;28;1499;-81
2021/07/02 09:21:22;;;;;;;;;;;;;;;30.55;33.91;97518.56;5042118;28;1330;-81
2021/07/02 09:23:47;;;;;;;;;;;;;;;30.29;34.45;97521.19;5018609;28;1604;-81
2021/07/02 09:26:12;;;;;;;;;;;;;;;30.07;34.90;97529.56;5043584;28;1274;-82
2021/07/02 09:28:37;;;;;;;;;;;;;;;30.06;35.03;97522.56;5024706;28;1503;-82
2021/07/02 09:31:02;;;;;;;;;;;;;;;30.09;34.93;97518.78;5041167;28;1576;-82
2021/07/02 09:33:28;;;;;;;;;;;;;;;30.44;34.26;97526.81;5042570;28;1607;-81
2021/07/02 09:35:55;;;;;;;;;;;;;;;30.05;35.13;97522.72;5024978;28;1983;-82
2021/07/02 09:38:33;;;;;;;;;;;;;;;29.72;35.54;97525.84;5042807;28;1226;-81
2021/07/02 09:40:59;;;;;;;;;;;;;;;30.34;34.45;97531.38;5020228;28;1612;-82
2021/07/02 09:43:27;;;;;;;;;;;;;;;30.07;35.16;97534.88;5019180;28;1616;-81
2021/07/02 09:46:01;;;;;;;;;;;;;;;30.12;34.84;97535.31;5044448;28;1289;-81
2021/07/02 09:48:27;;;;;;;;;;;;;;;29.91;35.36;97534.69;5041166;28;1493;-82
2021/07/02 09:50:52;;;;;;;;;;;;;;;29.98;35.32;97536.63;5025129;28;1371;-81
2021/07/02 09:53:18;;;;;;;;;;;;;;;30.21;34.47;97534.41;5042920;28;1369;-80
2021/07/02 09:55:48;;;;;;;;;;;;;;;30.16;34.71;97539.31;5024937;28;1907;-82
2021/07/02 09:58:17;;;;;;;;;;;;;;;30.19;34.54;97536.38;5041693;28;1519;-82
2021/07/02 10:00:42;;;;;;;;;;;;;;;30.06;34.86;97537.69;5042409;28;1078;-81
2021/07/02 10:03:07;;;;;;;;;;;;;;;30.10;34.92;97539.09;5040571;28;1536;-81
2021/07/02 10:05:42;;;;;;;;;;;;;;;30.16;34.73;97543.81;5042128;28;1536;-82
2021/07/02 10:08:07;;;;;;;;;;;;;;;29.83;35.18;97542.59;5041216;28;1361;-82
2021/07/02 10:10:33;;;;;;;;;;;;;;;30.13;34.83;97539.63;5043350;28;1256;-82
2021/07/02 10:12:58;;;;;;;;;;;;;;;30.32;34.69;97543.97;5041751;28;1228;-81
2021/07/02 10:15:23;;;;;;;;;;;;;;;30.22;34.60;97543.22;5023645;28;1606;-82
2021/07/02 10:17:48;;;;;;;;;;;;;;;30.14;34.80;97537.81;5041626;28;1967;-82
2021/07/02 10:20:14;;;;;;;;;;;;;;;30.72;33.95;97534.72;5041709;28;1322;-81
2021/07/02 10:22:39;;;;;;;;;;;;;;;29.88;35.40;97533.19;5023978;28;1228;-81
2021/07/02 10:25:05;;;;;;;;;;;;;;;30.10;34.66;97545.28;5041706;28;1523;-82
2021/07/02 10:27:30;;;;;;;;;;;;;;;30.17;34.50;97540.16;5043557;28;1280;-82
2021/07/02 10:29:55;;;;;;;;;;;;;;;30.00;35.05;97536.47;5021852;28;1272;-82
2021/07/02 10:32:20;;;;;;;;;;;;;;;29.80;35.37;97541.06;5023166;28;1165;-82
2021/07/02 10:34:46;;;;;;;;;;;;;;;30.17;34.69;97541.00;5022118;28;1595;-82
2021/07/02 10:37:11;;;;;;;;;;;;;;;30.37;34.58;97554.19;5042910;28;1906;-81
2021/07/02 10:39:38;;;;;;;;;;;;;;;30.03;35.01;97552.97;5024803;28;1370;-82
2021/07/02 10:42:13;;;;;;;;;;;;;;;30.20;34.91;97555.84;5042598;28;1611;-81
2021/07/02 10:44:59;;;;;;;;;;;;;;;29.91;35.16;97556.81;5020054;28;1645;-81
2021/07/02 10:47:24;;;;;;;;;;;;;;;30.29;34.44;97553.09;5042848;28;1282;-81
2021/07/02 10:49:50;;;;;;;;;;;;;;;30.32;34.29;97551.97;5040724;28;1789;-82
2021/07/02 10:52:15;;;;;;;;;;;;;;;30.22;34.48;97556.50;5041323;28;1374;-81
2021/07/02 10:54:41;;;;;;;;;;;;;;;29.86;35.42;97552.91;5039775;28;1199;-81
2021/07/02 10:57:06;;;;;;;;;;;;;;;30.24;34.40;97552.72;5039974;28;1965;-82
2021/07/02 10:59:37;;;;;;;;;;;;;;;30.46;34.01;97555.91;5042740;28;1731;-82
2021/07/02 11:02:02;;;;;;;;;;;;;;;30.38;34.15;97550.53;5042167;28;1184;-81
2021/07/02 11:04:32;;;;;;;;;;;;;;;30.26;34.39;97547.25;5040487;28;1547;-81
2021/07/02 11:06:57;;;;;;;;;;;;;;;30.24;34.74;97550.06;5020494;28;1684;-81
2021/07/02 11:09:42;;;;;;;;;;;;;;;30.29;34.39;97553.09;5041512;28;1462;-81
2021/07/02 11:12:08;;;;;;;;;;;;;;;30.61;33.82;97554.41;5040985;28;1337;-81
2021/07/02 11:14:33;;;;;;;;;;;;;;;30.43;34.29;97551.75;5040745;28;1528;-80
2021/07/02 11:17:17;;;;;;;;;;;;;;;29.93;35.20;97548.69;5039266;28;1969;-81
2021/07/02 11:19:43;;;;;;;;;;;;;;;29.87;35.45;97549.28;5038589;28;1682;-81
2021/07/02 11:22:24;;;;;;;;;;;;;;;30.94;33.51;97552.03;5040149;28;1376;-81
2021/07/02 11:24:59;;;;;;;;;;;;;;;31.03;33.05;97548.44;5039850;28;1110;-82
2021/07/02 11:27:44;;;;;;;;;;;;;;;30.63;33.89;97555.06;5039742;28;1655;-82
2021/07/02 11:30:22;;;;;;;;;;;;;;;29.71;35.80;97552.59;5041844;28;1186;-81
2021/07/02 11:32:48;;;;;;;;;;;;;;;30.51;34.17;97554.50;5042262;28;1576;-82
2021/07/02 11:35:20;;;;;;;;;;;;;;;31.31;32.97;97554.47;5023178;28;1137;-81
2021/07/02 11:38:08;;;;;;;;;;;;;;;31.39;32.61;97555.38;5038544;28;1898;-81
2021/07/02 11:40:36;;;;;;;;;;;;;;;30.33;34.60;97552.78;5027949;28;2318;-81
2021/07/02 11:43:02;;;;;;;;;;;;;;;31.25;32.85;97544.44;5036808;28;1543;-81
2021/07/02 11:45:42;;;;;;;;;;;;;;;30.80;33.28;97551.59;5040353;28;1381;-82
2021/07/02 11:48:27;;;;;;;;;;;;;;;31.00;33.31;97548.75;5038696;28;1640;-82
2021/07/02 11:50:53;;;;;;;;;;;;;;;30.98;33.45;97545.41;5040389;28;1359;-82
2021/07/02 11:53:31;;;;;;;;;;;;;;;30.89;33.52;97548.97;5020608;28;1343;-81
2021/07/02 11:55:58;;;;;;;;;;;;;;;31.20;33.01;97550.19;5037356;28;1976;-81
2021/07/02 11:58:23;;;;;;;;;;;;;;;30.79;33.67;97549.91;5038553;28;1436;-81
2021/07/02 12:00:48;;;;;;;;;;;;;;;30.41;34.27;97547.53;5023563;28;1525;-81
2021/07/02 12:03:16;;;;;;;;;;;;;;;30.84;33.25;97541.47;5039326;28;1543;-82
2021/07/02 12:05:50;;;;;;;;;;;;;;;30.79;33.52;97552.56;5037729;28;1681;-81
2021/07/02 12:08:18;;;;;;;;;;;;;;;31.05;33.34;97549.13;5033064;23;3864;-53
2021/07/02 12:10:43;;;;;;;;;;;;;;;30.77;33.72;97548.41;5020823;28;1280;-54
2021/07/02 12:13:09;;;;;;;;;;;;;;;31.12;33.16;97548.34;5020883;28;1525;-55
2021/07/02 12:15:35;;;;;;;;;;;;;;;31.20;33.22;97552.03;5018186;28;1971;-55
2021/07/02 12:18:01;;;;;;;;;;;;;;;31.40;32.32;97542.88;5017712;28;1620;-53
2021/07/02 12:20:26;;;;;;;;;;;;;;;31.27;32.96;97551.28;5044451;23;1940;-51
2021/07/02 12:23:00;;;;;;;;;;;;;;;31.08;33.36;97546.16;5014617;28;1520;-56
2021/07/02 12:25:25;;;;;;;;;;;;;;;31.74;32.19;97552.69;5013963;28;1308;-56
2021/07/02 12:27:56;;;;;;;;;;;;;;;30.85;33.60;97554.63;5018217;28;1557;-55
2021/07/02 12:30:21;;;;;;;;;;;;;;;31.07;33.12;97552.47;5019325;28;1287;-53
2021/07/02 12:32:46;;;;;;;;;;;;;;;31.08;33.14;97556.78;5020619;28;1526;-56
2021/07/02 12:35:12;;;;;;;;;;;;;;;31.21;33.00;97551.06;5007145;28;1222;-56
2021/07/02 12:37:37;;;;;;;;;;;;;;;30.94;33.38;97550.19;5023697;28;1978;-56
2021/07/02 12:40:03;;;;;;;;;;;;;;;30.89;33.46;97551.66;5022952;28;1130;-56
2021/07/02 12:42:32;;;;;;;;;;;;;;;30.95;33.56;97545.72;5022796;28;1497;-56
2021/07/02 12:44:58;;;;;;;;;;;;;;;31.40;32.52;97546.38;5023674;28;1028;-56
2021/07/02 12:47:23;;;;;;;;;;;;;;;31.00;33.31;97548.75;5022813;28;1173;-56
2021/07/02 12:49:53;;;;;;;;;;;;;;;31.36;32.70;97536.16;5021184;28;1580;-56
2021/07/02 12:54:54;;;;;;;;;;;;;;;31.06;33.25;97548.13;5023818;28;1129;-56
2021/07/02 12:57:29;;;;;;;;;;;;;;;31.04;33.30;97550.09;5020087;28;1910;-56